sensor_id;sensor_type;location;lat;lon;timestamp;pressure;altitude;pressure_sealevel;temperature;humidity
5522;BME280;2783;48.730;8.006;2023-04-03T00:01:18;100899.97;;;6.59;73.99
5522;BME280;2783;48.730;8.006;2023-04-03T00:03:44;100906.13;;;6.62;73.52
5522;BME280;2783;48.730;8.006;2023-04-03T00:06:10;100902.63;;;6.66;73.73
5522;BME280;2783;48.730;8.006;2023-04-03T00:08:37;100910.50;;;6.74;73.92
5522;BME280;2783;48.730;8.006;2023-04-03T00:11:02;100908.72;;;6.82;73.16
5522;BME280;2783;48.730;8.006;2023-04-03T00:13:28;100907.81;;;6.95;73.18
5522;BME280;2783;48.730;8.006;2023-04-03T00:15:53;100906.88;;;7.02;73.33
5522;BME280;2783;48.730;8.006;2023-04-03T00:18:18;100906.91;;;6.99;73.02
5522;BME280;2783;48.730;8.006;2023-04-03T00:20:44;100909.56;;;6.99;72.33
5522;BME280;2783;48.730;8.006;2023-04-03T00:23:09;100909.53;;;7.04;72.15
5522;BME280;2783;48.730;8.006;2023-04-03T00:25:34;100910.41;;;7.07;72.73
5522;BME280;2783;48.730;8.006;2023-04-03T00:28:00;100913.00;;;7.12;72.81
5522;BME280;2783;48.730;8.006;2023-04-03T00:30:25;100913.03;;;7.15;72.89
5522;BME280;2783;48.730;8.006;2023-04-03T00:32:51;100905.94;;;7.20;72.87
5522;BME280;2783;48.730;8.006;2023-04-03T00:35:17;100896.25;;;7.17;72.19
5522;BME280;2783;48.730;8.006;2023-04-03T00:37:43;100913.00;;;7.16;71.97
5522;BME280;2783;48.730;8.006;2023-04-03T00:40:09;100907.75;;;7.06;71.37
5522;BME280;2783;48.730;8.006;2023-04-03T00:42:36;100912.16;;;7.11;71.24
5522;BME280;2783;48.730;8.006;2023-04-03T00:47:26;100912.09;;;7.26;72.95
5522;BME280;2783;48.730;8.006;2023-04-03T00:49:52;100912.09;;;7.26;71.58
5522;BME280;2783;48.730;8.006;2023-04-03T00:52:19;100920.00;;;7.28;72.27
5522;BME280;2783;48.730;8.006;2023-04-03T00:54:46;100917.34;;;7.29;72.58
5522;BME280;2783;48.730;8.006;2023-04-03T00:57:12;100916.50;;;7.26;71.12
5522;BME280;2783;48.730;8.006;2023-04-03T00:59:44;100919.16;;;7.24;71.52
5522;BME280;2783;48.730;8.006;2023-04-03T01:02:11;100916.53;;;7.21;70.90
5522;BME280;2783;48.730;8.006;2023-04-03T01:04:37;100909.44;;;7.25;72.23
5522;BME280;2783;48.730;8.006;2023-04-03T01:07:07;100908.56;;;7.24;71.66
5522;BME280;2783;48.730;8.006;2023-04-03T01:09:33;100907.69;;;7.22;71.84
5522;BME280;2783;48.730;8.006;2023-04-03T01:14:43;100904.19;;;7.16;71.62
5522;BME280;2783;48.730;8.006;2023-04-03T01:19:57;100910.38;;;7.16;72.94
5522;BME280;2783;48.730;8.006;2023-04-03T01:22:30;100905.09;;;7.13;72.13
5522;BME280;2783;48.730;8.006;2023-04-03T01:25:00;100907.75;;;7.13;71.78
5522;BME280;2783;48.730;8.006;2023-04-03T01:27:26;100908.56;;;7.17;72.99
5522;BME280;2783;48.730;8.006;2023-04-03T01:29:52;100915.66;;;7.16;72.96
5522;BME280;2783;48.730;8.006;2023-04-03T01:32:17;100907.75;;;7.06;71.64
5522;BME280;2783;48.730;8.006;2023-04-03T01:34:43;100909.50;;;7.05;71.50
5522;BME280;2783;48.730;8.006;2023-04-03T01:37:08;100906.00;;;7.05;71.49
5522;BME280;2783;48.730;8.006;2023-04-03T01:39:33;100910.44;;;7.01;72.09
5522;BME280;2783;48.730;8.006;2023-04-03T01:41:58;100903.38;;;7.03;71.73
5522;BME280;2783;48.730;8.006;2023-04-03T01:44:24;100898.97;;;6.99;72.31
5522;BME280;2783;48.730;8.006;2023-04-03T01:46:49;100908.66;;;7.03;72.77
5522;BME280;2783;48.730;8.006;2023-04-03T01:49:14;100902.47;;;7.06;72.35
5522;BME280;2783;48.730;8.006;2023-04-03T01:51:40;100903.34;;;7.09;71.62
5522;BME280;2783;48.730;8.006;2023-04-03T01:54:05;100902.47;;;7.04;71.32
5522;BME280;2783;48.730;8.006;2023-04-03T01:56:30;100910.41;;;7.07;72.01
5522;BME280;2783;48.730;8.006;2023-04-03T01:58:56;100910.41;;;7.07;73.63
5522;BME280;2783;48.730;8.006;2023-04-03T02:01:21;100906.88;;;7.04;71.63
5522;BME280;2783;48.730;8.006;2023-04-03T02:03:46;100908.59;;;7.12;72.01
5522;BME280;2783;48.730;8.006;2023-04-03T02:06:11;100898.94;;;7.10;71.78
5522;BME280;2783;48.730;8.006;2023-04-03T02:08:37;100892.75;;;7.11;71.64
5522;BME280;2783;48.730;8.006;2023-04-03T02:11:02;100902.44;;;7.16;72.19
5522;BME280;2783;48.730;8.006;2023-04-03T02:13:27;100895.44;;;7.02;71.10
5522;BME280;2783;48.730;8.006;2023-04-03T02:15:53;100894.59;;;6.95;71.76
5522;BME280;2783;48.730;8.006;2023-04-03T02:18:18;100899.03;;;6.81;71.82
5522;BME280;2783;48.730;8.006;2023-04-03T02:20:43;100893.75;;;6.81;72.11
5522;BME280;2783;48.730;8.006;2023-04-03T02:23:09;100887.63;;;6.73;71.34
5522;BME280;2783;48.730;8.006;2023-04-03T02:25:34;100889.38;;;6.71;72.80
5522;BME280;2783;48.730;8.006;2023-04-03T02:28:00;100897.31;;;6.69;73.69
5522;BME280;2783;48.730;8.006;2023-04-03T02:30:25;100894.69;;;6.59;73.83
5522;BME280;2783;48.730;8.006;2023-04-03T02:32:51;100908.81;;;6.55;74.67
5522;BME280;2783;48.730;8.006;2023-04-03T02:35:16;100894.75;;;6.44;73.36
5522;BME280;2783;48.730;8.006;2023-04-03T02:37:42;100904.44;;;6.39;74.73
5522;BME280;2783;48.730;8.006;2023-04-03T02:40:07;100902.69;;;6.35;74.55
5522;BME280;2783;48.730;8.006;2023-04-03T02:42:33;100894.75;;;6.32;74.77
5522;BME280;2783;48.730;8.006;2023-04-03T02:44:58;100900.91;;;6.26;75.03
5522;BME280;2783;48.730;8.006;2023-04-03T02:47:25;100900.97;;;6.16;75.05
5522;BME280;2783;48.730;8.006;2023-04-03T02:49:50;100900.06;;;6.06;75.96
5522;BME280;2783;48.730;8.006;2023-04-03T02:52:17;100900.94;;;6.05;75.14
5522;BME280;2783;48.730;8.006;2023-04-03T02:54:43;100899.19;;;6.04;76.30
5522;BME280;2783;48.730;8.006;2023-04-03T02:57:08;100901.81;;;6.00;76.36
5522;BME280;2783;48.730;8.006;2023-04-03T02:59:37;100902.72;;;5.96;77.22
5522;BME280;2783;48.730;8.006;2023-04-03T03:02:05;100902.72;;;5.99;77.67
5522;BME280;2783;48.730;8.006;2023-04-03T03:04:30;100908.88;;;5.98;77.47
5522;BME280;2783;48.730;8.006;2023-04-03T03:06:56;100906.22;;;5.86;77.97
5522;BME280;2783;48.730;8.006;2023-04-03T03:09:21;100902.66;;;5.81;78.07
5522;BME280;2783;48.730;8.006;2023-04-03T03:11:46;100902.66;;;5.79;77.93
5522;BME280;2783;48.730;8.006;2023-04-03T03:14:11;100904.44;;;5.73;77.65
5522;BME280;2783;48.730;8.006;2023-04-03T03:16:37;100903.53;;;5.71;77.45
5522;BME280;2783;48.730;8.006;2023-04-03T03:19:02;100900.00;;;5.66;77.51
5522;BME280;2783;48.730;8.006;2023-04-03T03:21:27;100896.50;;;5.61;78.06
5522;BME280;2783;48.730;8.006;2023-04-03T03:23:53;100907.94;;;5.63;78.63
5522;BME280;2783;48.730;8.006;2023-04-03T03:26:18;100893.84;;;5.61;78.10
5522;BME280;2783;48.730;8.006;2023-04-03T03:28:43;100897.38;;;5.63;78.28
5522;BME280;2783;48.730;8.006;2023-04-03T03:31:08;100901.75;;;5.55;78.04
5522;BME280;2783;48.730;8.006;2023-04-03T03:33:34;100899.97;;;5.54;78.82
5522;BME280;2783;48.730;8.006;2023-04-03T03:35:59;100904.38;;;5.44;79.14
5522;BME280;2783;48.730;8.006;2023-04-03T03:38:25;100911.41;;;5.42;78.68
5522;BME280;2783;48.730;8.006;2023-04-03T03:40:50;100901.72;;;5.41;78.50
5522;BME280;2783;48.730;8.006;2023-04-03T03:43:16;100894.69;;;5.35;79.07
5522;BME280;2783;48.730;8.006;2023-04-03T03:45:41;100897.31;;;5.32;79.04
5522;BME280;2783;48.730;8.006;2023-04-03T03:48:07;100896.41;;;5.30;79.49
5522;BME280;2783;48.730;8.006;2023-04-03T03:50:32;100894.66;;;5.23;79.38
5522;BME280;2783;48.730;8.006;2023-04-03T03:52:57;100900.84;;;5.28;79.30
5522;BME280;2783;48.730;8.006;2023-04-03T03:55:23;100894.66;;;5.26;79.13
5522;BME280;2783;48.730;8.006;2023-04-03T03:57:48;100899.03;;;5.24;79.27
5522;BME280;2783;48.730;8.006;2023-04-03T04:00:14;100899.94;;;5.23;79.02
5522;BME280;2783;48.730;8.006;2023-04-03T04:02:39;100904.31;;;5.24;79.77
5522;BME280;2783;48.730;8.006;2023-04-03T04:05:04;100910.47;;;5.20;79.40
5522;BME280;2783;48.730;8.006;2023-04-03T04:07:30;100907.81;;;5.19;79.67
5522;BME280;2783;48.730;8.006;2023-04-03T04:09:55;100915.72;;;5.17;80.00
5522;BME280;2783;48.730;8.006;2023-04-03T04:12:20;100907.81;;;5.13;79.76
5522;BME280;2783;48.730;8.006;2023-04-03T04:14:46;100911.31;;;5.09;79.64
5522;BME280;2783;48.730;8.006;2023-04-03T04:17:14;100911.31;;;5.09;80.10
5522;BME280;2783;48.730;8.006;2023-04-03T04:19:40;100913.91;;;5.06;79.43
5522;BME280;2783;48.730;8.006;2023-04-03T04:22:05;100913.06;;;5.05;79.94
5522;BME280;2783;48.730;8.006;2023-04-03T04:24:30;100914.81;;;5.00;80.66
5522;BME280;2783;48.730;8.006;2023-04-03T04:26:56;100912.16;;;5.00;80.68
5522;BME280;2783;48.730;8.006;2023-04-03T04:29:21;100924.47;;;5.01;80.89
5522;BME280;2783;48.730;8.006;2023-04-03T04:31:46;100926.19;;;4.99;80.44
5522;BME280;2783;48.730;8.006;2023-04-03T04:34:11;100924.44;;;4.98;80.42
5522;BME280;2783;48.730;8.006;2023-04-03T04:36:38;100919.16;;;4.92;80.27
5522;BME280;2783;48.730;8.006;2023-04-03T04:39:03;100919.16;;;4.91;80.51
5522;BME280;2783;48.730;8.006;2023-04-03T04:41:28;100927.91;;;4.87;80.50
5522;BME280;2783;48.730;8.006;2023-04-03T04:43:53;100925.25;;;4.84;81.03
5522;BME280;2783;48.730;8.006;2023-04-03T04:46:19;100927.91;;;4.82;81.41
5522;BME280;2783;48.730;8.006;2023-04-03T04:48:44;100927.00;;;4.82;81.06
5522;BME280;2783;48.730;8.006;2023-04-03T04:51:10;100934.00;;;4.72;81.56
5522;BME280;2783;48.730;8.006;2023-04-03T04:53:35;100936.63;;;4.72;81.93
5522;BME280;2783;48.730;8.006;2023-04-03T04:56:00;100933.13;;;4.76;82.10
5522;BME280;2783;48.730;8.006;2023-04-03T04:58:26;100941.91;;;4.75;82.00
5522;BME280;2783;48.730;8.006;2023-04-03T05:01:05;100948.03;;;4.73;81.36
5522;BME280;2783;48.730;8.006;2023-04-03T05:03:30;100941.00;;;4.73;81.73
5522;BME280;2783;48.730;8.006;2023-04-03T05:05:55;100943.63;;;4.70;82.29
5522;BME280;2783;48.730;8.006;2023-04-03T05:08:21;100947.16;;;4.72;82.22
5522;BME280;2783;48.730;8.006;2023-04-03T05:10:46;100941.88;;;4.68;82.92
5522;BME280;2783;48.730;8.006;2023-04-03T05:13:12;100948.91;;;4.69;82.65
5522;BME280;2783;48.730;8.006;2023-04-03T05:15:37;100949.75;;;4.65;83.61
5522;BME280;2783;48.730;8.006;2023-04-03T05:18:02;100948.81;;;4.61;84.13
5522;BME280;2783;48.730;8.006;2023-04-03T05:20:28;100943.59;;;4.64;84.31
5522;BME280;2783;48.730;8.006;2023-04-03T05:22:53;100952.38;;;4.63;83.85
5522;BME280;2783;48.730;8.006;2023-04-03T05:25:18;100955.91;;;4.65;83.66
5522;BME280;2783;48.730;8.006;2023-04-03T05:27:44;100950.63;;;4.68;83.72
5522;BME280;2783;48.730;8.006;2023-04-03T05:30:09;100957.69;;;4.69;83.92
5522;BME280;2783;48.730;8.006;2023-04-03T05:32:35;100950.72;;;4.77;83.81
5522;BME280;2783;48.730;8.006;2023-04-03T05:35:00;100965.63;;;4.80;84.06
5522;BME280;2783;48.730;8.006;2023-04-03T05:37:28;100963.06;;;4.89;83.99
5522;BME280;2783;48.730;8.006;2023-04-03T05:39:54;100958.72;;;5.03;84.00
5522;BME280;2783;48.730;8.006;2023-04-03T05:42:19;100964.06;;;5.16;83.83
5522;BME280;2783;48.730;8.006;2023-04-03T05:44:44;100964.97;;;5.24;82.35
5522;BME280;2783;48.730;8.006;2023-04-03T05:47:12;100960.66;;;5.40;82.12
5522;BME280;2783;48.730;8.006;2023-04-03T05:49:37;100966.84;;;5.44;81.98
5522;BME280;2783;48.730;8.006;2023-04-03T05:52:05;100974.75;;;5.53;80.75
5522;BME280;2783;48.730;8.006;2023-04-03T05:54:31;100968.59;;;5.54;80.55
5522;BME280;2783;48.730;8.006;2023-04-03T05:56:56;100968.63;;;5.69;79.81
5522;BME280;2783;48.730;8.006;2023-04-03T05:59:21;100972.25;;;5.98;78.89
5522;BME280;2783;48.730;8.006;2023-04-03T06:01:47;100979.31;;;6.32;79.11
5522;BME280;2783;48.730;8.006;2023-04-03T06:04:12;100969.56;;;6.64;75.97
5522;BME280;2783;48.730;8.006;2023-04-03T06:06:45;100970.41;;;6.90;73.89
5522;BME280;2783;48.730;8.006;2023-04-03T06:09:10;100979.06;;;7.37;73.32
5522;BME280;2783;48.730;8.006;2023-04-03T06:11:36;100976.16;;;7.81;72.34
5522;BME280;2783;48.730;8.006;2023-04-03T06:14:01;100984.34;;;8.69;69.51
5522;BME280;2783;48.730;8.006;2023-04-03T06:16:28;100973.44;;;10.29;61.03
5522;BME280;2783;48.730;8.006;2023-04-03T06:18:53;100989.09;;;11.40;55.08
5522;BME280;2783;48.730;8.006;2023-04-03T06:21:19;100980.41;;;12.48;51.38
5522;BME280;2783;48.730;8.006;2023-04-03T06:23:44;100979.53;;;13.76;48.36
5522;BME280;2783;48.730;8.006;2023-04-03T06:26:10;100985.94;;;14.55;45.92
5522;BME280;2783;48.730;8.006;2023-04-03T06:28:35;100984.63;;;14.13;45.71
5522;BME280;2783;48.730;8.006;2023-04-03T06:31:00;100988.88;;;14.20;45.95
5522;BME280;2783;48.730;8.006;2023-04-03T06:33:25;100986.28;;;14.97;44.31
5522;BME280;2783;48.730;8.006;2023-04-03T06:35:55;100998.59;;;14.76;42.95
5522;BME280;2783;48.730;8.006;2023-04-03T06:38:20;100994.94;;;14.52;44.91
5522;BME280;2783;48.730;8.006;2023-04-03T06:40:46;100993.25;;;15.51;42.09
5522;BME280;2783;48.730;8.006;2023-04-03T06:43:12;101001.94;;;16.69;41.72
5522;BME280;2783;48.730;8.006;2023-04-03T06:45:37;100991.66;;;15.92;40.64
5522;BME280;2783;48.730;8.006;2023-04-03T06:48:02;100997.59;;;16.00;40.01
5522;BME280;2783;48.730;8.006;2023-04-03T06:50:27;100999.94;;;16.54;39.97
5522;BME280;2783;48.730;8.006;2023-04-03T06:52:53;101002.75;;;17.33;38.88
5522;BME280;2783;48.730;8.006;2023-04-03T06:55:18;101001.34;;;18.01;38.62
5522;BME280;2783;48.730;8.006;2023-04-03T06:57:43;101010.97;;;17.30;37.66
5522;BME280;2783;48.730;8.006;2023-04-03T07:00:10;101008.13;;;16.71;38.61
5522;BME280;2783;48.730;8.006;2023-04-03T07:02:35;101009.25;;;16.44;38.64
5522;BME280;2783;48.730;8.006;2023-04-03T07:05:01;101013.63;;;14.54;42.17
5522;BME280;2783;48.730;8.006;2023-04-03T07:07:27;101012.38;;;12.51;45.89
5522;BME280;2783;48.730;8.006;2023-04-03T07:09:53;101021.72;;;12.67;46.45
5522;BME280;2783;48.730;8.006;2023-04-03T07:12:18;101005.56;;;14.28;44.42
5522;BME280;2783;48.730;8.006;2023-04-03T07:14:43;101015.78;;;14.95;42.21
5522;BME280;2783;48.730;8.006;2023-04-03T07:17:08;101020.91;;;13.33;43.98
5522;BME280;2783;48.730;8.006;2023-04-03T07:19:34;101021.94;;;11.83;47.28
5522;BME280;2783;48.730;8.006;2023-04-03T07:21:59;101024.63;;;10.94;49.42
5522;BME280;2783;48.730;8.006;2023-04-03T07:24:24;101022.34;;;10.71;52.20
5522;BME280;2783;48.730;8.006;2023-04-03T07:26:54;101023.34;;;12.00;50.07
5522;BME280;2783;48.730;8.006;2023-04-03T07:29:19;101026.25;;;12.99;46.80
5522;BME280;2783;48.730;8.006;2023-04-03T07:31:46;101025.56;;;13.57;46.16
5522;BME280;2783;48.730;8.006;2023-04-03T07:34:12;101023.19;;;14.06;45.43
5522;BME280;2783;48.730;8.006;2023-04-03T07:36:37;101016.53;;;14.19;44.65
5522;BME280;2783;48.730;8.006;2023-04-03T07:39:02;101019.09;;;14.77;44.19
5522;BME280;2783;48.730;8.006;2023-04-03T07:41:28;101025.97;;;14.58;43.25
5522;BME280;2783;48.730;8.006;2023-04-03T07:43:53;101018.88;;;14.57;43.66
5522;BME280;2783;48.730;8.006;2023-04-03T07:46:19;101025.47;;;14.99;42.77
5522;BME280;2783;48.730;8.006;2023-04-03T07:48:45;101014.13;;;15.66;43.19
5522;BME280;2783;48.730;8.006;2023-04-03T07:51:11;101016.91;;;15.63;41.53
5522;BME280;2783;48.730;8.006;2023-04-03T07:53:36;101017.13;;;15.33;42.64
5522;BME280;2783;48.730;8.006;2023-04-03T07:56:01;101021.72;;;15.29;43.22
5522;BME280;2783;48.730;8.006;2023-04-03T07:58:28;101016.59;;;15.48;43.17
5522;BME280;2783;48.730;8.006;2023-04-03T08:00:53;101030.53;;;14.82;42.69
5522;BME280;2783;48.730;8.006;2023-04-03T08:03:18;101023.84;;;14.69;44.09
5522;BME280;2783;48.730;8.006;2023-04-03T08:05:45;101022.59;;;15.05;44.51
5522;BME280;2783;48.730;8.006;2023-04-03T08:08:11;101021.47;;;15.35;44.18
5522;BME280;2783;48.730;8.006;2023-04-03T08:10:37;101025.94;;;15.61;43.92
5522;BME280;2783;48.730;8.006;2023-04-03T08:13:03;101021.66;;;15.55;43.63
5522;BME280;2783;48.730;8.006;2023-04-03T08:15:29;101017.66;;;15.67;43.68
5522;BME280;2783;48.730;8.006;2023-04-03T08:17:55;101019.78;;;15.82;43.58
5522;BME280;2783;48.730;8.006;2023-04-03T08:20:20;101014.97;;;15.90;44.02
5522;BME280;2783;48.730;8.006;2023-04-03T08:22:45;101018.19;;;15.27;43.65
5522;BME280;2783;48.730;8.006;2023-04-03T08:25:11;101027.03;;;14.54;44.80
5522;BME280;2783;48.730;8.006;2023-04-03T08:27:36;101014.72;;;14.19;44.18
5522;BME280;2783;48.730;8.006;2023-04-03T08:30:02;101028.81;;;13.37;45.43
5522;BME280;2783;48.730;8.006;2023-04-03T08:32:28;101035.16;;;12.64;46.53
5522;BME280;2783;48.730;8.006;2023-04-03T08:34:54;101022.69;;;11.90;47.93
5522;BME280;2783;48.730;8.006;2023-04-03T08:37:19;101023.69;;;11.84;49.11
5522;BME280;2783;48.730;8.006;2023-04-03T08:39:44;101024.06;;;11.69;50.41
5522;BME280;2783;48.730;8.006;2023-04-03T08:43:12;101026.88;;;11.59;49.72
5522;BME280;2783;48.730;8.006;2023-04-03T08:57:15;101025.91;;;12.06;50.97
5522;BME280;2783;48.730;8.006;2023-04-03T08:59:42;101031.47;;;12.33;51.53
5522;BME280;2783;48.730;8.006;2023-04-03T09:02:41;101030.25;;;12.83;49.30
5522;BME280;2783;48.730;8.006;2023-04-03T09:04:59;101037.59;;;13.08;48.05
5522;BME280;2783;48.730;8.006;2023-04-03T09:07:36;101040.69;;;13.26;47.16
5522;BME280;2783;48.730;8.006;2023-04-03T09:10:04;101034.53;;;12.88;48.77
5522;BME280;2783;48.730;8.006;2023-04-03T09:12:39;101035.09;;;13.35;49.23
5522;BME280;2783;48.730;8.006;2023-04-03T09:20:24;101034.50;;;13.56;47.31
5522;BME280;2783;48.730;8.006;2023-04-03T09:22:54;101038.88;;;13.28;48.75
5522;BME280;2783;48.730;8.006;2023-04-03T09:25:20;101034.09;;;13.06;47.72
5522;BME280;2783;48.730;8.006;2023-04-03T09:27:46;101041.72;;;12.86;48.58
5522;BME280;2783;48.730;8.006;2023-04-03T09:30:16;101029.75;;;13.02;48.67
5522;BME280;2783;48.730;8.006;2023-04-03T09:32:41;101035.25;;;12.61;48.72
5522;BME280;2783;48.730;8.006;2023-04-03T09:37:39;101034.19;;;13.36;50.55
5522;BME280;2783;48.730;8.006;2023-04-03T09:40:05;101039.34;;;13.42;46.17
5522;BME280;2783;48.730;8.006;2023-04-03T09:42:31;101035.31;;;13.27;45.28
5522;BME280;2783;48.730;8.006;2023-04-03T09:47:29;101034.81;;;14.34;42.69
5522;BME280;2783;48.730;8.006;2023-04-03T09:52:49;101039.25;;;13.45;45.10
5522;BME280;2783;48.730;8.006;2023-04-03T09:57:40;101036.16;;;13.29;43.41
5522;BME280;2783;48.730;8.006;2023-04-03T10:00:06;101039.41;;;13.71;41.97
5522;BME280;2783;48.730;8.006;2023-04-03T10:02:44;101032.03;;;14.08;42.10
5522;BME280;2783;48.730;8.006;2023-04-03T10:08:07;101043.47;;;13.53;42.93
5522;BME280;2783;48.730;8.006;2023-04-03T10:10:32;101036.88;;;13.36;43.35
5522;BME280;2783;48.730;8.006;2023-04-03T10:13:03;101046.00;;;13.27;44.41
5522;BME280;2783;48.730;8.006;2023-04-03T10:15:28;101040.47;;;13.01;44.16
5522;BME280;2783;48.730;8.006;2023-04-03T10:17:57;101037.19;;;12.88;45.40
5522;BME280;2783;48.730;8.006;2023-04-03T10:20:27;101040.94;;;12.46;44.88
5522;BME280;2783;48.730;8.006;2023-04-03T10:23:03;101037.50;;;12.41;46.24
5522;BME280;2783;48.730;8.006;2023-04-03T10:25:43;101028.13;;;12.62;46.33
5522;BME280;2783;48.730;8.006;2023-04-03T10:31:00;101038.41;;;12.42;45.42
5522;BME280;2783;48.730;8.006;2023-04-03T10:33:34;101025.66;;;12.53;45.66
5522;BME280;2783;48.730;8.006;2023-04-03T10:46:09;101022.31;;;12.78;44.09
5522;BME280;2783;48.730;8.006;2023-04-03T10:51:15;101023.53;;;13.00;45.56
5522;BME280;2783;48.730;8.006;2023-04-03T10:53:57;101026.00;;;12.74;44.32
5522;BME280;2783;48.730;8.006;2023-04-03T11:01:55;101022.94;;;13.55;42.67
5522;BME280;2783;48.730;8.006;2023-04-03T11:04:21;101015.03;;;15.16;40.38
5522;BME280;2783;48.730;8.006;2023-04-03T11:06:54;101012.69;;;16.26;37.84
5522;BME280;2783;48.730;8.006;2023-04-03T11:09:32;101007.22;;;16.06;38.01
5522;BME280;2783;48.730;8.006;2023-04-03T11:12:06;101006.28;;;15.83;40.81
5522;BME280;2783;48.730;8.006;2023-04-03T11:14:35;101007.47;;;15.27;37.83
5522;BME280;2783;48.730;8.006;2023-04-03T11:17:22;101010.63;;;14.37;37.67
5522;BME280;2783;48.730;8.006;2023-04-03T11:22:30;101012.31;;;13.83;41.95
5522;BME280;2783;48.730;8.006;2023-04-03T11:25:13;101005.13;;;13.56;44.22
5522;BME280;2783;48.730;8.006;2023-04-03T11:28:13;101010.47;;;13.23;44.93
5522;BME280;2783;48.730;8.006;2023-04-03T11:36:04;101006.81;;;12.94;43.87
5522;BME280;2783;48.730;8.006;2023-04-03T11:38:38;101006.19;;;12.84;42.25
5522;BME280;2783;48.730;8.006;2023-04-03T11:41:07;101002.34;;;12.94;44.39
5522;BME280;2783;48.730;8.006;2023-04-03T11:43:33;100998.84;;;12.92;42.94
5522;BME280;2783;48.730;8.006;2023-04-03T11:46:00;100999.00;;;12.86;43.51
5522;BME280;2783;48.730;8.006;2023-04-03T11:50:53;100996.00;;;12.98;44.17
5522;BME280;2783;48.730;8.006;2023-04-03T11:53:26;100992.84;;;13.16;43.66
5522;BME280;2783;48.730;8.006;2023-04-03T11:55:56;100989.25;;;13.19;41.60
5522;BME280;2783;48.730;8.006;2023-04-03T11:58:22;100991.59;;;13.30;42.37
5522;BME280;2783;48.730;8.006;2023-04-03T12:00:59;100987.34;;;13.53;42.31
5522;BME280;2783;48.730;8.006;2023-04-03T12:05:50;100991.72;;;13.25;40.20
5522;BME280;2783;48.730;8.006;2023-04-03T12:13:38;100991.53;;;13.31;43.86
5522;BME280;2783;48.730;8.006;2023-04-03T12:16:05;100989.00;;;12.94;42.72
5522;BME280;2783;48.730;8.006;2023-04-03T12:18:44;100984.00;;;12.81;42.38
5522;BME280;2783;48.730;8.006;2023-04-03T12:22:19;100987.06;;;12.99;41.82
5522;BME280;2783;48.730;8.006;2023-04-03T12:26:46;100988.94;;;12.96;41.59
5522;BME280;2783;48.730;8.006;2023-04-03T12:37:26;100975.88;;;12.85;42.29
5522;BME280;2783;48.730;8.006;2023-04-03T12:42:31;100972.06;;;12.62;43.16
5522;BME280;2783;48.730;8.006;2023-04-03T12:47:33;100971.81;;;12.36;42.95
5522;BME280;2783;48.730;8.006;2023-04-03T12:50:01;100961.19;;;12.34;42.63
5522;BME280;2783;48.730;8.006;2023-04-03T12:52:30;100977.03;;;12.42;43.92
5522;BME280;2783;48.730;8.006;2023-04-03T12:54:57;100970.56;;;12.52;46.10
5522;BME280;2783;48.730;8.006;2023-04-03T12:57:24;100974.00;;;12.20;42.68
5522;BME280;2783;48.730;8.006;2023-04-03T12:59:50;100970.41;;;12.21;43.82
5522;BME280;2783;48.730;8.006;2023-04-03T13:02:36;100971.94;;;12.31;44.67
5522;BME280;2783;48.730;8.006;2023-04-03T13:05:06;100971.69;;;12.42;45.61
5522;BME280;2783;48.730;8.006;2023-04-03T13:07:33;100971.72;;;12.04;44.60
5522;BME280;2783;48.730;8.006;2023-04-03T13:10:09;100972.31;;;12.16;46.07
5522;BME280;2783;48.730;8.006;2023-04-03T13:15:14;100980.38;;;12.13;45.92
5522;BME280;2783;48.730;8.006;2023-04-03T13:17:40;100977.28;;;12.31;44.76
5522;BME280;2783;48.730;8.006;2023-04-03T13:20:26;100970.38;;;12.23;43.12
5522;BME280;2783;48.730;8.006;2023-04-03T13:25:20;100968.78;;;12.16;42.61
5522;BME280;2783;48.730;8.006;2023-04-03T13:27:46;100969.03;;;12.05;43.54
5522;BME280;2783;48.730;8.006;2023-04-03T13:32:46;100967.28;;;12.03;42.98
5522;BME280;2783;48.730;8.006;2023-04-03T13:40:46;100962.56;;;11.77;44.65
5522;BME280;2783;48.730;8.006;2023-04-03T13:43:20;100961.38;;;11.90;45.24
5522;BME280;2783;48.730;8.006;2023-04-03T13:45:59;100973.22;;;11.77;46.20
5522;BME280;2783;48.730;8.006;2023-04-03T13:48:25;100963.19;;;11.88;46.91
5522;BME280;2783;48.730;8.006;2023-04-03T13:50:57;100964.31;;;11.78;46.13
5522;BME280;2783;48.730;8.006;2023-04-03T13:53:24;100964.19;;;11.84;47.08
5522;BME280;2783;48.730;8.006;2023-04-03T13:56:00;100961.25;;;11.94;46.58
5522;BME280;2783;48.730;8.006;2023-04-03T13:58:30;100961.78;;;12.10;46.28
5522;BME280;2783;48.730;8.006;2023-04-03T14:01:00;100951.06;;;12.13;45.02
5522;BME280;2783;48.730;8.006;2023-04-03T14:03:29;100961.34;;;12.28;46.81
5522;BME280;2783;48.730;8.006;2023-04-03T14:05:55;100961.19;;;12.34;46.68
5522;BME280;2783;48.730;8.006;2023-04-03T14:08:20;100946.69;;;12.11;46.81
5522;BME280;2783;48.730;8.006;2023-04-03T14:10:46;100952.44;;;11.93;45.61
5522;BME280;2783;48.730;8.006;2023-04-03T14:13:16;100963.75;;;11.64;45.13
5522;BME280;2783;48.730;8.006;2023-04-03T14:15:41;100953.47;;;11.46;43.99
5522;BME280;2783;48.730;8.006;2023-04-03T14:18:10;100959.03;;;11.34;44.63
5522;BME280;2783;48.730;8.006;2023-04-03T14:20:36;100951.16;;;11.29;44.49
5522;BME280;2783;48.730;8.006;2023-04-03T14:23:01;100950.28;;;11.27;45.01
5522;BME280;2783;48.730;8.006;2023-04-03T14:25:26;100951.88;;;11.37;45.61
5522;BME280;2783;48.730;8.006;2023-04-03T14:27:52;100947.28;;;11.44;45.27
5522;BME280;2783;48.730;8.006;2023-04-03T14:30:23;100947.22;;;11.47;44.62
5522;BME280;2783;48.730;8.006;2023-04-03T14:32:49;100941.94;;;11.44;45.68
5522;BME280;2783;48.730;8.006;2023-04-03T14:35:15;100945.53;;;11.43;45.12
5522;BME280;2783;48.730;8.006;2023-04-03T14:37:41;100945.72;;;11.34;45.72
5522;BME280;2783;48.730;8.006;2023-04-03T14:40:08;100947.34;;;11.41;45.91
5522;BME280;2783;48.730;8.006;2023-04-03T14:42:35;100944.72;;;11.39;45.77
5522;BME280;2783;48.730;8.006;2023-04-03T14:45:02;100948.41;;;11.32;46.91
5522;BME280;2783;48.730;8.006;2023-04-03T14:47:29;100939.69;;;11.26;46.83
5522;BME280;2783;48.730;8.006;2023-04-03T14:49:54;100947.72;;;11.23;46.18
5522;BME280;2783;48.730;8.006;2023-04-03T14:52:24;100944.34;;;11.15;44.91
5522;BME280;2783;48.730;8.006;2023-04-03T14:54:51;100946.25;;;11.08;47.38
5522;BME280;2783;48.730;8.006;2023-04-03T14:57:16;100948.09;;;11.05;47.22
5522;BME280;2783;48.730;8.006;2023-04-03T14:59:42;100946.97;;;11.16;47.91
5522;BME280;2783;48.730;8.006;2023-04-03T15:04:54;100933.50;;;11.24;45.76